Time;durP1;ratioP1;P1;durP2;ratioP2;P2;SDS_P1;SDS_P2;PMS_P1;PMS_P2;Temp;Humidity;BMP_temperature;BMP_pressure;BME280_temperature;BME280_humidity;BME280_pressure;Samples;Min_cycle;Max_cycle;Signal;HPM_P1;HPM_P2
2023/11/11 00:01:25;;;;;;;;;;;;;;;29.59;80.73;101132.97;5093540;27;67079;-41
2023/11/11 00:03:55;;;;;;;;;;;;;;;29.59;81.30;101127.56;5095117;27;69868;-39
2023/11/11 00:06:25;;;;;;;;;;;;;;;29.57;81.48;101140.44;5089141;27;65399;-40
2023/11/11 00:08:56;;;;;;;;;;;;;;;29.60;81.03;101148.13;5073151;27;68508;-40
2023/11/11 00:11:26;;;;;;;;;;;;;;;29.62;79.74;101154.19;5098135;27;65621;-40
2023/11/11 00:13:56;;;;;;;;;;;;;;;29.59;80.69;101166.22;5101725;27;70124;-38
2023/11/11 00:16:26;;;;;;;;;;;;;;;29.61;80.86;101160.59;5097459;27;65670;-38
2023/11/11 00:18:56;;;;;;;;;;;;;;;29.64;81.56;101168.34;5090321;27;68440;-38
2023/11/11 00:21:27;;;;;;;;;;;;;;;29.63;81.12;101174.78;5095553;27;66904;-38
2023/11/11 00:23:57;;;;;;;;;;;;;;;29.62;81.67;101181.22;5096572;27;69149;-39
2023/11/11 00:26:27;;;;;;;;;;;;;;;29.63;80.86;101188.31;5094311;27;64762;-39
2023/11/11 00:28:57;;;;;;;;;;;;;;;29.61;81.41;101184.94;5091670;27;69151;-38
2023/11/11 00:31:27;;;;;;;;;;;;;;;29.68;79.10;101191.22;5097393;27;66757;-39
2023/11/11 00:33:58;;;;;;;;;;;;;;;29.71;80.64;101190.00;5092005;27;69348;-39
2023/11/11 00:36:28;;;;;;;;;;;;;;;29.70;80.35;101194.56;5101115;27;66229;-38
2023/11/11 00:38:58;;;;;;;;;;;;;;;29.70;80.72;101194.56;5097322;27;69374;-38
2023/11/11 00:41:28;;;;;;;;;;;;;;;29.77;81.50;101184.59;5099716;27;65461;-38
2023/11/11 00:43:58;;;;;;;;;;;;;;;29.87;82.88;101183.38;5103517;27;70417;-39
2023/11/11 00:46:29;;;;;;;;;;;;;;;29.94;83.40;101184.19;5095320;27;67820;-40
2023/11/11 00:49:00;;;;;;;;;;;;;;;29.99;83.86;101197.94;5100279;27;70449;-39
2023/11/11 00:51:30;;;;;;;;;;;;;;;30.02;84.04;101203.75;5100324;27;66183;-38
2023/11/11 00:54:00;;;;;;;;;;;;;;;30.05;83.75;101202.50;5096981;27;69117;-38
2023/11/11 00:56:30;;;;;;;;;;;;;;;30.08;83.67;101218.31;5098860;27;66810;-39
2023/11/11 00:59:00;;;;;;;;;;;;;;;30.09;83.56;101220.00;5094119;27;70372;-38
2023/11/11 01:01:30;;;;;;;;;;;;;;;30.10;83.26;101221.66;5090685;27;68612;-38
2023/11/11 01:04:03;;;;;;;;;;;;;;;30.12;82.71;101230.41;5089580;27;70797;-38
2023/11/11 01:06:34;;;;;;;;;;;;;;;30.16;82.85;101231.66;5078906;27;66711;-38
2023/11/11 01:09:06;;;;;;;;;;;;;;;30.17;83.13;101236.03;5093871;27;70105;-39
2023/11/11 01:11:36;;;;;;;;;;;;;;;30.19;82.51;101227.69;5088434;27;67197;-38
2023/11/11 01:14:06;;;;;;;;;;;;;;;30.21;82.53;101234.56;5079179;27;69994;-38
2023/11/11 01:16:35;;;;;;;;;;;;;;;30.23;82.46;101231.72;5093449;27;66076;-38
2023/11/11 01:19:06;;;;;;;;;;;;;;;30.24;81.71;101233.38;5092063;27;69340;-38
2023/11/11 01:21:37;;;;;;;;;;;;;;;30.25;81.90;101230.44;5081901;27;66216;-39
2023/11/11 01:24:07;;;;;;;;;;;;;;;30.10;81.77;101200.03;5093735;27;69767;-38
2023/11/11 01:26:37;;;;;;;;;;;;;;;30.30;81.89;101226.28;5059671;27;66293;-37
2023/11/11 01:29:07;;;;;;;;;;;;;;;30.30;82.29;101226.28;5075938;27;70710;-38
2023/11/11 01:31:37;;;;;;;;;;;;;;;30.32;82.36;101225.03;5074565;27;65756;-38
2023/11/11 01:34:07;;;;;;;;;;;;;;;30.34;82.15;101227.53;5095586;27;68437;-38
2023/11/11 01:36:37;;;;;;;;;;;;;;;30.36;82.01;101228.16;5078802;27;65525;-38
2023/11/11 01:39:07;;;;;;;;;;;;;;;30.37;81.49;101229.81;5073759;27;70256;-38
2023/11/11 01:41:37;;;;;;;;;;;;;;;30.38;81.39;101234.19;5075107;27;66691;-39
2023/11/11 01:44:07;;;;;;;;;;;;;;;30.40;81.05;101226.72;5054435;27;69434;-38
2023/11/11 01:46:37;;;;;;;;;;;;;;;30.42;80.86;101232.72;5092869;27;66917;-38
2023/11/11 01:49:07;;;;;;;;;;;;;;;30.43;80.43;101231.69;5073487;27;69740;-38
2023/11/11 01:51:37;;;;;;;;;;;;;;;30.44;80.56;101230.66;5092515;27;66101;-38
2023/11/11 01:54:07;;;;;;;;;;;;;;;30.44;80.24;101230.66;5074811;27;71558;-38
2023/11/11 01:56:38;;;;;;;;;;;;;;;30.46;80.54;101225.88;5095287;27;66591;-39
2023/11/11 01:59:08;;;;;;;;;;;;;;;30.48;80.26;101224.63;5077796;27;70379;-40
2023/11/11 02:01:38;;;;;;;;;;;;;;;30.49;79.78;101220.84;5091600;27;67028;-39
2023/11/11 02:04:08;;;;;;;;;;;;;;;30.51;79.47;101231.50;5096408;27;70043;-39
2023/11/11 02:06:38;;;;;;;;;;;;;;;30.54;79.20;101231.06;5072376;27;66435;-40
2023/11/11 02:09:08;;;;;;;;;;;;;;;30.55;79.36;101230.00;5093743;27;69286;-39
2023/11/11 02:11:38;;;;;;;;;;;;;;;30.56;78.99;101223.53;5093605;27;66002;-43
2023/11/11 02:14:10;;;;;;;;;;;;;;;30.58;78.82;101229.59;5095172;27;70193;-37
2023/11/11 02:16:41;;;;;;;;;;;;;;;30.61;78.63;101223.75;5057765;27;66601;-38
2023/11/11 02:19:11;;;;;;;;;;;;;;;30.62;78.60;101238.97;5092157;27;70216;-39
2023/11/11 02:21:43;;;;;;;;;;;;;;;30.64;78.49;101228.75;5079228;27;67265;-38
2023/11/11 02:24:13;;;;;;;;;;;;;;;30.65;78.19;101225.00;5091879;27;70114;-38
2023/11/11 02:26:43;;;;;;;;;;;;;;;30.67;78.00;101222.06;5093014;27;66679;-38
2023/11/11 02:29:13;;;;;;;;;;;;;;;30.69;77.74;101226.25;5092146;27;70344;-38
2023/11/11 02:31:43;;;;;;;;;;;;;;;30.70;77.79;101227.94;5053407;27;66756;-38
2023/11/11 02:34:13;;;;;;;;;;;;;;;30.71;77.69;101226.88;5075083;27;69825;-38
2023/11/11 02:36:43;;;;;;;;;;;;;;;30.73;77.32;101226.69;5076547;27;65806;-38
2023/11/11 02:39:31;;;;;;;;;;;;;;;30.75;77.32;101232.69;5092901;27;62429;-39
2023/11/11 02:42:01;;;;;;;;;;;;;;;30.79;76.90;101225.00;5082456;27;66953;-38
2023/11/11 02:44:31;;;;;;;;;;;;;;;30.80;76.92;101221.25;5094822;27;69930;-39
2023/11/11 02:47:01;;;;;;;;;;;;;;;30.81;76.47;101217.50;5095099;27;67005;-38
2023/11/11 02:49:31;;;;;;;;;;;;;;;30.82;76.56;101211.06;5092743;27;70787;-39
2023/11/11 02:52:01;;;;;;;;;;;;;;;30.85;76.35;101207.91;5089321;27;67467;-39
2023/11/11 02:54:30;;;;;;;;;;;;;;;30.86;76.14;101209.56;5094336;27;70324;-39
2023/11/11 02:57:01;;;;;;;;;;;;;;;30.88;76.12;101197.50;5072159;27;67092;-38
2023/11/11 02:59:30;;;;;;;;;;;;;;;30.89;76.12;101187.47;5089340;27;69259;-38
2023/11/11 03:02:00;;;;;;;;;;;;;;;30.93;75.67;101194.16;5074353;27;66541;-39
2023/11/11 03:04:32;;;;;;;;;;;;;;;30.95;75.52;101186.63;5087587;27;70340;-38
2023/11/11 03:07:02;;;;;;;;;;;;;;;30.96;75.66;101185.59;5092819;27;66618;-39
2023/11/11 03:09:32;;;;;;;;;;;;;;;30.97;75.41;101189.97;5091216;27;69708;-39
2023/11/11 03:12:02;;;;;;;;;;;;;;;30.98;75.47;101186.22;5092614;27;65818;-40
2023/11/11 03:14:32;;;;;;;;;;;;;;;31.00;75.33;101178.69;5074643;27;70923;-39
2023/11/11 03:17:02;;;;;;;;;;;;;;;31.02;74.92;101171.19;5069763;27;66487;-39
2023/11/11 03:19:31;;;;;;;;;;;;;;;31.04;75.16;101163.69;5089646;27;69668;-38
2023/11/11 03:22:02;;;;;;;;;;;;;;;31.04;75.35;101171.81;5091388;27;66738;-39
2023/11/11 03:24:32;;;;;;;;;;;;;;;31.07;74.77;101179.50;5089265;27;70620;-38
2023/11/11 03:27:03;;;;;;;;;;;;;;;31.08;74.69;101167.63;5076529;27;67237;-39
2023/11/11 03:29:34;;;;;;;;;;;;;;;31.11;74.73;101155.50;5088442;27;70962;-40
2023/11/11 03:32:05;;;;;;;;;;;;;;;31.12;74.60;101149.91;5070671;27;66813;-40
2023/11/11 03:34:35;;;;;;;;;;;;;;;31.15;74.29;101146.75;5090414;27;70818;-40
2023/11/11 03:37:05;;;;;;;;;;;;;;;31.15;74.52;101144.03;5067136;27;66133;-38
2023/11/11 03:39:36;;;;;;;;;;;;;;;31.19;74.06;101143.59;5071110;27;70171;-38
2023/11/11 03:42:07;;;;;;;;;;;;;;;31.21;74.04;101136.09;5086889;27;66014;-38
2023/11/11 03:44:37;;;;;;;;;;;;;;;31.21;74.05;101120.66;5073481;27;70890;-41
2023/11/11 03:47:07;;;;;;;;;;;;;;;31.25;73.51;101126.47;5093497;27;66895;-39
2023/11/11 03:49:38;;;;;;;;;;;;;;;31.25;73.63;101131.91;5068754;27;70585;-39
2023/11/11 03:52:09;;;;;;;;;;;;;;;31.27;73.24;101121.66;5089933;27;67002;-39
2023/11/11 03:54:40;;;;;;;;;;;;;;;31.27;73.19;101121.66;5085919;27;70647;-38
2023/11/11 03:57:10;;;;;;;;;;;;;;;31.29;73.00;101117.69;5070848;27;67927;-38
2023/11/11 03:59:40;;;;;;;;;;;;;;;31.30;73.15;101123.94;5086836;27;70006;-48
2023/11/11 04:02:10;;;;;;;;;;;;;;;31.32;72.79;101108.31;5089279;27;66731;-39
2023/11/11 04:04:40;;;;;;;;;;;;;;;31.35;73.26;101103.28;5073593;27;69898;-40
2023/11/11 04:07:13;;;;;;;;;;;;;;;31.35;72.78;101095.13;5070417;27;66578;-39
2023/11/11 04:09:43;;;;;;;;;;;;;;;31.39;72.88;101096.38;5079801;27;70218;-38
2023/11/11 04:12:14;;;;;;;;;;;;;;;31.42;72.65;101088.88;5069121;27;66866;-38
2023/11/11 04:14:45;;;;;;;;;;;;;;;31.45;72.79;101100.09;5097776;27;69914;-39
2023/11/11 04:17:15;;;;;;;;;;;;;;;31.46;72.53;101095.53;5055033;27;66813;-39
2023/11/11 04:19:46;;;;;;;;;;;;;;;31.48;72.77;101090.69;5054694;27;70743;-39
2023/11/11 04:22:16;;;;;;;;;;;;;;;31.50;73.19;101094.84;5071357;27;66020;-39
2023/11/11 04:24:47;;;;;;;;;;;;;;;31.51;73.12;101088.41;5082868;27;70092;-39
2023/11/11 04:27:17;;;;;;;;;;;;;;;31.53;73.15;101077.31;5068850;27;65480;-39
2023/11/11 04:29:47;;;;;;;;;;;;;;;31.53;72.74;101078.13;5068770;27;70709;-39
2023/11/11 04:32:17;;;;;;;;;;;;;;;31.64;72.58;101071.19;5091192;27;66883;-38
2023/11/11 04:34:50;;;;;;;;;;;;;;;31.73;72.37;101069.88;5095443;27;70148;-39
2023/11/11 04:37:20;;;;;;;;;;;;;;;31.81;71.99;101068.72;5097968;27;65397;-39
2023/11/11 04:39:50;;;;;;;;;;;;;;;31.86;71.98;101057.22;5097114;27;70517;-38
2023/11/11 04:42:20;;;;;;;;;;;;;;;31.92;71.31;101057.19;5099309;27;66758;-39
2023/11/11 04:44:53;;;;;;;;;;;;;;;31.50;71.27;100999.13;5093556;27;70748;-39
2023/11/11 04:47:23;;;;;;;;;;;;;;;31.76;71.03;101047.72;5096460;27;67154;-40
2023/11/11 04:49:53;;;;;;;;;;;;;;;31.77;70.96;101059.41;5082956;27;70758;-39
2023/11/11 04:52:25;;;;;;;;;;;;;;;31.76;70.97;101046.88;5092158;27;67004;-39
2023/11/11 04:54:55;;;;;;;;;;;;;;;31.74;71.02;101044.41;5094019;27;70269;-39
2023/11/11 04:57:25;;;;;;;;;;;;;;;31.75;71.03;101040.63;5098337;27;66222;-40
2023/11/11 04:59:55;;;;;;;;;;;;;;;31.77;70.58;101040.41;5095038;27;70778;-38
2023/11/11 05:02:26;;;;;;;;;;;;;;;31.77;71.00;101035.00;5094392;27;66517;-39
2023/11/11 05:04:56;;;;;;;;;;;;;;;31.79;70.70;101024.75;5096853;27;69954;-38
2023/11/11 05:07:26;;;;;;;;;;;;;;;31.81;70.82;101025.34;5095499;27;66498;-39
2023/11/11 05:09:56;;;;;;;;;;;;;;;31.82;70.73;101029.72;5096523;27;70302;-39
2023/11/11 05:12:27;;;;;;;;;;;;;;;31.85;70.96;101017.59;5087893;27;67649;-39
2023/11/11 05:14:58;;;;;;;;;;;;;;;31.87;70.55;101018.19;5085231;27;70223;-38
2023/11/11 05:17:28;;;;;;;;;;;;;;;31.87;70.96;101018.19;5089207;27;66566;-39
2023/11/11 05:19:59;;;;;;;;;;;;;;;31.90;70.65;101015.03;5089483;27;70739;-38
2023/11/11 05:22:29;;;;;;;;;;;;;;;31.96;70.60;101014.19;5096399;27;66373;-39
2023/11/11 05:25:00;;;;;;;;;;;;;;;32.10;70.38;101010.28;5095530;27;70834;-38
2023/11/11 05:27:30;;;;;;;;;;;;;;;32.19;70.22;100998.03;5101781;27;66330;-39
2023/11/11 05:30:01;;;;;;;;;;;;;;;32.26;70.02;100984.38;5099598;27;70314;-39
2023/11/11 05:32:31;;;;;;;;;;;;;;;32.32;69.83;100988.94;5101450;27;65723;-38
2023/11/11 05:35:05;;;;;;;;;;;;;;;32.37;69.69;100977.38;5102635;27;70724;-40
2023/11/11 05:37:37;;;;;;;;;;;;;;;32.40;69.24;100972.34;5101419;27;66353;-39
2023/11/11 05:40:10;;;;;;;;;;;;;;;32.43;69.37;100977.31;5102828;27;70330;-38
2023/11/11 05:42:40;;;;;;;;;;;;;;;32.46;68.84;100974.16;5096402;27;67062;-39
2023/11/11 05:45:11;;;;;;;;;;;;;;;32.50;68.83;100971.81;5095744;27;70705;-37
2023/11/11 05:47:42;;;;;;;;;;;;;;;32.54;68.39;100964.00;5102802;27;65383;-39
2023/11/11 05:50:12;;;;;;;;;;;;;;;32.56;68.31;100964.63;5102086;27;70679;-38
2023/11/11 05:52:42;;;;;;;;;;;;;;;32.57;68.09;100955.41;5097598;27;65504;-38
2023/11/11 05:55:13;;;;;;;;;;;;;;;32.60;67.99;100954.97;5102929;27;69579;-39
2023/11/11 05:57:43;;;;;;;;;;;;;;;32.63;67.71;100954.50;5103256;27;66009;-40
2023/11/11 06:00:14;;;;;;;;;;;;;;;32.65;67.63;100944.22;5101228;27;70660;-38
2023/11/11 06:02:44;;;;;;;;;;;;;;;32.67;67.46;100933.97;5090975;27;66927;-39
2023/11/11 06:05:14;;;;;;;;;;;;;;;32.68;67.15;100938.31;5101947;27;70330;-39
2023/11/11 06:10:50;;;;;;;;;;;;;;;32.73;67.01;100922.16;5102034;27;70579;-39
2023/11/11 06:13:20;;;;;;;;;;;;;;;32.76;66.69;100915.44;5103333;27;66555;-38
2023/11/11 06:15:50;;;;;;;;;;;;;;;32.76;66.85;100916.25;5101785;27;70856;-38
2023/11/11 06:18:21;;;;;;;;;;;;;;;32.78;66.75;100908.72;5099712;27;66511;-39
2023/11/11 06:20:51;;;;;;;;;;;;;;;32.82;66.65;100893.63;5103443;27;70326;-39
2023/11/11 06:23:21;;;;;;;;;;;;;;;32.84;66.77;100901.53;5103263;27;66991;-38
2023/11/11 06:25:54;;;;;;;;;;;;;;;32.86;66.71;100888.53;5092116;27;70270;-39
2023/11/11 06:28:24;;;;;;;;;;;;;;;32.87;66.22;100874.72;5087499;27;66970;-39
2023/11/11 06:30:54;;;;;;;;;;;;;;;32.88;65.97;100870.94;5102721;27;70508;-39
2023/11/11 06:33:24;;;;;;;;;;;;;;;32.90;66.04;100863.41;5082670;27;66120;-38
2023/11/11 06:35:58;;;;;;;;;;;;;;;32.74;65.87;100831.50;5084183;27;70044;-38
2023/11/11 06:38:29;;;;;;;;;;;;;;;32.93;65.87;100862.94;5084068;27;66212;-39
2023/11/11 06:40:59;;;;;;;;;;;;;;;32.96;65.61;100858.06;5083684;27;70703;-38
2023/11/11 06:43:28;;;;;;;;;;;;;;;32.98;65.90;100853.22;5102085;27;65658;-38
2023/11/11 06:45:59;;;;;;;;;;;;;;;33.01;65.59;100844.63;5103375;27;70387;-38
2023/11/11 06:48:29;;;;;;;;;;;;;;;33.02;65.40;100838.97;5101478;27;66687;-39
2023/11/11 06:51:00;;;;;;;;;;;;;;;33.06;65.37;100839.31;5101098;27;70312;-38
2023/11/11 06:53:29;;;;;;;;;;;;;;;33.08;65.55;100835.31;5101075;27;65618;-39
2023/11/11 06:55:59;;;;;;;;;;;;;;;33.12;65.22;100832.94;5101339;27;70113;-39
2023/11/11 06:58:29;;;;;;;;;;;;;;;33.15;65.17;100829.75;5102314;27;66525;-39
2023/11/11 07:00:59;;;;;;;;;;;;;;;33.18;65.17;100826.53;5101512;27;70022;-39
2023/11/11 07:03:34;;;;;;;;;;;;;;;33.21;64.82;100825.25;5101958;27;65682;-38
2023/11/11 07:06:05;;;;;;;;;;;;;;;33.25;64.98;100821.81;5101049;27;70672;-40
2023/11/11 07:08:35;;;;;;;;;;;;;;;33.27;64.50;100818.88;5101430;27;66049;-39
2023/11/11 07:11:06;;;;;;;;;;;;;;;33.30;64.87;100819.22;5101584;27;69814;-39
2023/11/11 07:13:35;;;;;;;;;;;;;;;33.31;64.34;100815.44;5101382;27;66578;-39
2023/11/11 07:16:05;;;;;;;;;;;;;;;33.34;64.37;100814.94;5099384;27;69465;-38
2023/11/11 07:18:35;;;;;;;;;;;;;;;33.37;64.21;100809.03;5082353;27;66588;-38
2023/11/11 07:21:05;;;;;;;;;;;;;;;33.42;64.17;100810.22;5101560;27;70580;-38
2023/11/11 07:23:35;;;;;;;;;;;;;;;33.44;63.84;100808.91;5100101;27;66768;-38
2023/11/11 07:26:06;;;;;;;;;;;;;;;33.48;63.89;100809.25;5097580;27;70543;-39
2023/11/11 07:28:36;;;;;;;;;;;;;;;33.48;63.26;100787.50;5101625;27;65727;-40
2023/11/11 07:31:06;;;;;;;;;;;;;;;33.50;63.26;100790.81;5099826;27;69843;-40
2023/11/11 07:33:36;;;;;;;;;;;;;;;33.53;63.12;100785.75;5102087;27;65227;-40
2023/11/11 07:36:07;;;;;;;;;;;;;;;33.58;63.28;100787.75;5096267;27;70788;-39
2023/11/11 07:38:39;;;;;;;;;;;;;;;33.62;62.97;100783.47;5099736;27;66970;-39
2023/11/11 07:41:10;;;;;;;;;;;;;;;33.64;63.01;100786.78;5098376;27;70674;-39
2023/11/11 07:43:40;;;;;;;;;;;;;;;33.68;62.93;100785.22;5100236;27;66031;-39
2023/11/11 07:46:10;;;;;;;;;;;;;;;33.71;62.70;100782.03;5099755;27;69928;-39
2023/11/11 07:48:41;;;;;;;;;;;;;;;33.75;62.90;100777.75;5101305;27;67003;-40
2023/11/11 07:51:10;;;;;;;;;;;;;;;33.76;62.40;100779.41;5097807;27;70596;-40
2023/11/11 07:53:40;;;;;;;;;;;;;;;33.83;62.39;100783.88;5099670;27;66730;-39
2023/11/11 07:56:10;;;;;;;;;;;;;;;33.86;61.79;100781.50;5099079;27;70610;-40
2023/11/11 07:58:41;;;;;;;;;;;;;;;33.90;61.56;100779.09;5082180;27;66436;-39
2023/11/11 08:01:11;;;;;;;;;;;;;;;33.93;61.48;100786.78;5098240;27;69773;-39
2023/11/11 08:03:42;;;;;;;;;;;;;;;33.97;61.66;100785.25;5101344;27;66911;-39
2023/11/11 08:06:12;;;;;;;;;;;;;;;34.00;61.34;100790.19;5098526;27;70340;-38
2023/11/11 08:08:42;;;;;;;;;;;;;;;33.86;60.48;100780.69;5096672;27;66463;-38
2023/11/11 08:11:14;;;;;;;;;;;;;;;33.51;62.09;100781.56;5095166;27;70920;-37
2023/11/11 08:13:44;;;;;;;;;;;;;;;33.34;63.17;100782.31;5097910;27;66108;-39
2023/11/11 08:16:14;;;;;;;;;;;;;;;33.26;63.62;100785.41;5074358;27;69995;-39
2023/11/11 08:18:45;;;;;;;;;;;;;;;33.22;63.89;100786.97;5057717;27;65827;-39
2023/11/11 08:21:19;;;;;;;;;;;;;;;33.20;64.09;100780.94;5094737;27;69756;-40
2023/11/11 08:23:50;;;;;;;;;;;;;;;33.17;63.57;100784.13;5094876;27;66611;-38
2023/11/11 08:26:21;;;;;;;;;;;;;;;33.18;63.11;100779.53;5073592;27;70676;-38
2023/11/11 08:28:51;;;;;;;;;;;;;;;33.17;62.98;100781.41;5090612;27;66580;-37
2023/11/11 08:31:21;;;;;;;;;;;;;;;33.18;62.69;100777.63;5095249;27;70521;-38
2023/11/11 08:33:51;;;;;;;;;;;;;;;33.18;62.75;100777.63;5098388;27;67041;-38
2023/11/11 08:36:21;;;;;;;;;;;;;;;33.19;62.57;100781.19;5096234;27;69783;-38
2023/11/11 08:38:51;;;;;;;;;;;;;;;33.22;62.52;100783.44;5099514;27;66157;-38
2023/11/11 08:41:20;;;;;;;;;;;;;;;33.20;62.49;100786.38;5073377;27;70038;-38
2023/11/11 08:43:50;;;;;;;;;;;;;;;33.25;62.32;100774.78;5063135;27;65576;-37
2023/11/11 08:46:20;;;;;;;;;;;;;;;33.27;62.42;100778.09;5101755;27;70845;-37
2023/11/11 08:48:51;;;;;;;;;;;;;;;33.31;61.41;100771.94;5105587;27;67084;-48
2023/11/11 08:51:21;;;;;;;;;;;;;;;33.34;61.25;100765.19;5104686;27;70228;-39
2023/11/11 08:53:51;;;;;;;;;;;;;;;33.35;61.39;100759.53;5106668;27;66951;-39
2023/11/11 08:56:21;;;;;;;;;;;;;;;33.37;61.23;100762.81;5104739;27;70528;-40
2023/11/11 08:58:51;;;;;;;;;;;;;;;33.40;61.49;100763.41;5084311;27;65379;-40
2023/11/11 09:01:21;;;;;;;;;;;;;;;33.36;62.40;100755.72;5086547;27;69288;-38
2023/11/11 09:03:52;;;;;;;;;;;;;;;33.33;62.46;100764.38;5104748;27;66908;-39
2023/11/11 09:06:22;;;;;;;;;;;;;;;33.59;63.37;100756.75;5102021;27;69792;-39
2023/11/11 09:08:52;;;;;;;;;;;;;;;33.90;62.29;100762.78;5104264;27;65113;-39
2023/11/11 09:11:22;;;;;;;;;;;;;;;34.07;61.83;100769.09;5103548;27;70719;-38
2023/11/11 09:13:52;;;;;;;;;;;;;;;34.22;61.18;100774.00;5103699;27;66664;-38
2023/11/11 09:16:23;;;;;;;;;;;;;;;34.31;61.29;100775.25;5102283;27;70765;-38
2023/11/11 09:18:53;;;;;;;;;;;;;;;34.41;60.88;100778.16;5103872;27;66961;-39
2023/11/11 09:21:22;;;;;;;;;;;;;;;34.47;60.85;100784.50;5099856;27;70614;-39
2023/11/11 09:23:53;;;;;;;;;;;;;;;34.54;60.36;100789.78;5102308;27;66915;-39
2023/11/11 09:26:24;;;;;;;;;;;;;;;34.01;61.81;100792.66;5103209;27;70579;-39
2023/11/11 09:28:54;;;;;;;;;;;;;;;33.88;62.81;100792.13;5100882;27;66539;-37
2023/11/11 09:31:24;;;;;;;;;;;;;;;33.78;63.08;100790.88;5100657;27;70503;-39
2023/11/11 09:34:00;;;;;;;;;;;;;;;33.76;63.76;100795.72;5097531;27;66995;-39
2023/11/11 09:36:30;;;;;;;;;;;;;;;33.70;63.79;100807.56;5075850;27;71622;-39
2023/11/11 09:39:00;;;;;;;;;;;;;;;33.69;64.40;100816.81;5060641;27;67088;-38
2023/11/11 09:41:31;;;;;;;;;;;;;;;33.80;64.21;100829.56;5093929;27;69794;-37
2023/11/11 09:44:03;;;;;;;;;;;;;;;33.72;64.21;100827.22;5098414;27;66121;-36
2023/11/11 09:46:38;;;;;;;;;;;;;;;33.65;64.13;100823.78;5096496;27;69744;-39
2023/11/11 09:49:09;;;;;;;;;;;;;;;34.05;63.39;100833.06;5096354;27;65642;-39
2023/11/11 09:51:40;;;;;;;;;;;;;;;34.28;62.55;100840.28;5106230;27;69774;-38
2023/11/11 09:54:11;;;;;;;;;;;;;;;34.41;62.05;100832.63;5106416;27;66636;-37
2023/11/11 09:56:44;;;;;;;;;;;;;;;34.51;61.42;100845.56;5099974;27;69780;-37
2023/11/11 09:59:18;;;;;;;;;;;;;;;34.57;60.67;100850.06;5102350;27;65532;-36
2023/11/11 10:01:48;;;;;;;;;;;;;;;34.63;60.29;100842.81;5102066;27;70202;-37
2023/11/11 10:04:19;;;;;;;;;;;;;;;34.67;60.71;100855.69;5102408;27;66302;-38
2023/11/11 10:06:52;;;;;;;;;;;;;;;34.38;60.62;100854.06;5101412;27;69733;-38
2023/11/11 10:09:23;;;;;;;;;;;;;;;34.10;62.13;100861.19;5093698;27;66601;-37
2023/11/11 10:11:53;;;;;;;;;;;;;;;33.98;62.59;100868.53;5093544;27;70854;-39
2023/11/11 10:14:23;;;;;;;;;;;;;;;33.89;63.36;100875.44;5094699;27;66727;-38
2023/11/11 10:16:58;;;;;;;;;;;;;;;33.85;63.51;100874.25;5092545;27;70427;-38
2023/11/11 10:19:28;;;;;;;;;;;;;;;33.83;63.87;100876.41;5092194;27;66593;-39
2023/11/11 10:21:58;;;;;;;;;;;;;;;33.76;63.88;100882.78;5094530;27;69956;-38
2023/11/11 10:24:28;;;;;;;;;;;;;;;33.76;63.96;100882.78;5095364;27;66796;-37
2023/11/11 10:26:58;;;;;;;;;;;;;;;33.75;64.21;100886.56;5099823;27;70676;-37
2023/11/11 10:29:33;;;;;;;;;;;;;;;33.78;64.44;100896.97;5094910;27;66240;-37
2023/11/11 10:32:09;;;;;;;;;;;;;;;33.72;64.48;100899.84;5093753;27;70739;-38
2023/11/11 10:34:40;;;;;;;;;;;;;;;33.76;64.51;100899.09;5088537;27;66912;-38
2023/11/11 10:37:10;;;;;;;;;;;;;;;33.70;64.56;100900.06;5095941;27;70356;-37
2023/11/11 10:39:40;;;;;;;;;;;;;;;33.69;64.88;100903.88;5095889;27;66935;-37
2023/11/11 10:42:10;;;;;;;;;;;;;;;33.66;65.54;100893.47;5095218;27;70601;-38
2023/11/11 10:44:40;;;;;;;;;;;;;;;33.66;66.21;100893.47;5097103;27;66935;-38
2023/11/11 10:47:11;;;;;;;;;;;;;;;33.64;66.07;100895.59;5076584;27;69266;-38
2023/11/11 10:49:42;;;;;;;;;;;;;;;33.66;66.06;100904.34;5095551;27;65572;-38
2023/11/11 10:52:12;;;;;;;;;;;;;;;33.65;66.04;100916.25;5098661;27;69665;-38
2023/11/11 10:54:43;;;;;;;;;;;;;;;33.61;65.85;100912.38;5088455;27;66611;-38
2023/11/11 10:57:14;;;;;;;;;;;;;;;33.56;66.31;100921.25;5097200;27;70555;-38
2023/11/11 10:59:44;;;;;;;;;;;;;;;33.55;66.14;100924.22;5094649;27;66010;-37
2023/11/11 11:02:14;;;;;;;;;;;;;;;33.51;66.08;100933.88;5089084;27;70006;-38
2023/11/11 11:04:46;;;;;;;;;;;;;;;33.54;66.41;100928.00;5097160;27;67096;-37
2023/11/11 11:07:19;;;;;;;;;;;;;;;33.52;66.58;100924.66;5078352;27;70321;-38
2023/11/11 11:09:54;;;;;;;;;;;;;;;33.45;66.47;100934.81;5086258;27;66370;-38
2023/11/11 11:12:30;;;;;;;;;;;;;;;33.44;66.45;100939.44;5088121;27;70337;-37
2023/11/11 11:15:06;;;;;;;;;;;;;;;33.44;66.34;100941.34;5095413;27;66336;-39
2023/11/11 11:17:39;;;;;;;;;;;;;;;33.41;66.79;100933.66;5089629;27;69696;-37
2023/11/11 11:20:12;;;;;;;;;;;;;;;33.40;66.62;100940.97;5088346;27;66121;-39
2023/11/11 11:22:42;;;;;;;;;;;;;;;33.35;66.84;100938.97;5094215;27;69584;-38
2023/11/11 11:25:32;;;;;;;;;;;;;;;33.33;66.89;100941.09;5094248;27;65779;-38
2023/11/11 11:28:14;;;;;;;;;;;;;;;33.31;66.93;100940.50;5078962;27;70488;-38
2023/11/11 11:30:55;;;;;;;;;;;;;;;33.33;66.85;100954.69;5097798;27;66221;-38
2023/11/11 11:33:26;;;;;;;;;;;;;;;33.33;67.12;100949.25;5095443;27;70301;-39
2023/11/11 11:36:00;;;;;;;;;;;;;;;33.30;67.13;100955.16;5094059;27;66497;-38
2023/11/11 11:38:34;;;;;;;;;;;;;;;33.27;67.06;100965.69;5093471;27;69881;-39
2023/11/11 11:41:11;;;;;;;;;;;;;;;33.27;67.44;100977.38;5079028;27;65401;-39
2023/11/11 11:43:42;;;;;;;;;;;;;;;33.27;67.68;100982.81;5090082;27;69588;-39
2023/11/11 11:46:12;;;;;;;;;;;;;;;33.23;67.47;100987.06;5087421;27;66909;-39
2023/11/11 11:48:43;;;;;;;;;;;;;;;33.20;67.77;100990.25;5085616;27;70640;-39
2023/11/11 11:51:14;;;;;;;;;;;;;;;33.18;67.62;101000.50;5094756;27;65987;-39
2023/11/11 11:53:45;;;;;;;;;;;;;;;33.20;67.54;101012.00;5085901;27;70073;-39
2023/11/11 11:56:29;;;;;;;;;;;;;;;33.17;67.62;101011.63;5090623;27;65470;-39
2023/11/11 11:59:02;;;;;;;;;;;;;;;33.13;67.45;101012.09;5093389;27;70661;-39
2023/11/11 12:01:36;;;;;;;;;;;;;;;33.15;67.70;101017.28;5088143;27;65943;-40
2023/11/11 12:04:07;;;;;;;;;;;;;;;33.12;67.97;101013.16;5089703;27;70644;-39
2023/11/11 12:06:37;;;;;;;;;;;;;;;33.11;68.50;101026.97;5095388;27;67228;-39
2023/11/11 12:09:09;;;;;;;;;;;;;;;33.12;69.18;101028.63;5094002;27;69976;-38
2023/11/11 12:11:39;;;;;;;;;;;;;;;32.98;66.99;101032.56;5089130;27;66638;-38
2023/11/11 12:14:10;;;;;;;;;;;;;;;32.90;65.63;101037.28;5094477;27;70195;-38
2023/11/11 12:16:47;;;;;;;;;;;;;;;32.79;64.92;101037.22;5098503;27;66097;-39
2023/11/11 12:19:18;;;;;;;;;;;;;;;32.71;63.73;101027.53;5055079;27;70832;-38
2023/11/11 12:21:50;;;;;;;;;;;;;;;32.66;62.79;101036.34;5088907;27;66806;-39
2023/11/11 12:24:29;;;;;;;;;;;;;;;32.55;61.51;101045.28;5099641;27;69808;-38
2023/11/11 12:26:59;;;;;;;;;;;;;;;32.43;60.71;101039.75;5085547;27;66158;-38
2023/11/11 12:29:37;;;;;;;;;;;;;;;32.39;59.71;101049.38;5095436;27;70779;-39
2023/11/11 12:32:13;;;;;;;;;;;;;;;32.34;58.98;101054.66;5102307;27;67052;-39
2023/11/11 12:34:44;;;;;;;;;;;;;;;32.29;57.93;101051.81;5096575;27;70278;-38
2023/11/11 12:37:20;;;;;;;;;;;;;;;32.21;57.39;101047.50;5091099;27;65643;-38
2023/11/11 12:39:50;;;;;;;;;;;;;;;32.12;56.84;101050.72;5093756;27;69779;-39
2023/11/11 12:42:26;;;;;;;;;;;;;;;32.05;55.90;101046.22;5105001;27;66891;-39
2023/11/11 12:44:56;;;;;;;;;;;;;;;32.01;55.55;101046.88;5072115;27;70686;-38
2023/11/11 12:47:25;;;;;;;;;;;;;;;31.98;55.28;101053.59;5100550;27;66815;-38
2023/11/11 12:49:57;;;;;;;;;;;;;;;31.94;54.59;101049.66;5087802;27;70399;-39
2023/11/11 12:52:27;;;;;;;;;;;;;;;31.92;55.29;101059.06;5096232;27;66044;-41
2023/11/11 12:54:57;;;;;;;;;;;;;;;31.88;55.00;101058.66;5095269;27;69702;-39
2023/11/11 12:57:31;;;;;;;;;;;;;;;31.82;55.09;101063.09;5095403;27;66559;-40